This is the latest recevied weather packets stored in our database for station/object DG9MHV-10. If no packets are shown the sender has not sent any weather packets the latest 10 day(s).
| Time | Temp. | Humidity | Pressure | Rain* | Wind** | Luminosity | Snow |
|---|---|---|---|---|---|---|---|
| 1777999262 | 16.67° C | 100% | 1007.5 hPa | - | - | - | - |
| 1777998362 | 17.22° C | 100% | 1007.5 hPa | - | - | - | - |
| 1777996574 | 18.89° C | 100% | 1007.3 hPa | - | - | - | - |
| 1777995674 | 18.33° C | 100% | 1007.3 hPa | - | - | - | - |
| 1777994774 | 17.22° C | 100% | 1007.5 hPa | - | - | - | - |
| 1777993874 | 17.78° C | 100% | 1007.6 hPa | - | - | - | - |
| 1777992974 | 18.89° C | 100% | 1007.7 hPa | - | - | - | - |
| 1777992074 | 20° C | 100% | 1007.7 hPa | - | - | - | - |
| 1777991174 | 20.56° C | 100% | 1007.7 hPa | - | - | - | - |
| 1777989373 | 20.56° C | 100% | 1007.8 hPa | - | - | - | - |
| 1777988473 | 20.56° C | 100% | 1007.9 hPa | - | - | - | - |
| 1777987573 | 20.56° C | 100% | 1007.8 hPa | - | - | - | - |
| 1777986673 | 21.11° C | 100% | 1007.8 hPa | - | - | - | - |
| 1777985773 | 21.67° C | 100% | 1008 hPa | - | - | - | - |
| 1777984873 | 22.78° C | 100% | 1007.9 hPa | - | - | - | - |
| 1777983973 | 22.78° C | 100% | 1007.7 hPa | - | - | - | - |
| 1777983073 | 24.44° C | 100% | 1007.7 hPa | - | - | - | - |
| 1777982173 | 27.22° C | 100% | 1007.5 hPa | - | - | - | - |
| 1777981272 | 28.33° C | 100% | 1007.5 hPa | - | - | - | - |
| 1777980372 | 27.78° C | 100% | 1007.5 hPa | - | - | - | - |
| 1777979472 | 27.22° C | 100% | 1007.6 hPa | - | - | - | - |
| 1777978572 | 26.67° C | 100% | 1007.7 hPa | - | - | - | - |
| 1777977672 | 26.67° C | 100% | 1007.9 hPa | - | - | - | - |
| 1777976772 | 26.67° C | 100% | 1007.9 hPa | - | - | - | - |
| 1777975872 | 25.56° C | 100% | 1008.1 hPa | - | - | - | - |
* Rain since midnight (hover to see other rain measurements)
** Current wind speed in m/s (hover to see current wind gust speed)